Borsbeek, Belgium
Current Conditions -  °F | °C
As of 3:50 AM on Tuesday 27 Jan 2015 (Local Time) from EBAW Reporting Station
Few Clouds Few Clouds  
Wind Chill:   Ceiling: Unl
Heat Index:   Visibility: 6mi
Dew Point:   Wind: 7mph
Humidity: 87%   Direction: 280°W
Pressure: 30.24"   Gusts: NA
Location:  51.2°N, 4.49°E
Report Text: EBAW 270250Z AUTO 28006KT 9999 FEW043/// 04/02 Q1024
Loading
Personal Weather Stations






























Interactive Weather Map New forecast layout! Learn more

10-Day Weather Forecast

Advertisements
Track Severe Weather on mobile